Peyton, Colorado
Current Conditions -  °F | °C
As of 12:34 PM on Friday 28 Nov 2014 (Local Time) from KMNH Reporting Station
Clear Clear  
Wind Chill: 61°   Ceiling: Unl
Heat Index: 61°   Visibility: 10mi
Dew Point:   Wind: 3mph
Humidity: 11%   Direction: 190°S
Pressure: 29.95"   Gusts: NA
Location:  39.03°N, 104.48°W
Report Text: KMNH 281934Z AUTO 19003KT 10SM CLR 16/M15 A2995 RMK AO2
Loading
Personal Weather Stations






























Interactive Weather Map New forecast layout! Learn more

10-Day Weather Forecast

Advertisements
Track Severe Weather on mobile